Time;durP1;ratioP1;P1;durP2;ratioP2;P2;SDS_P1;SDS_P2;PMS_P1;PMS_P2;Temp;Humidity;BMP_temperature;BMP_pressure;BME280_temperature;BME280_humidity;BME280_pressure;Samples;Min_cycle;Max_cycle;Signal;HPM_P1;HPM_P2
2023/07/29 00:02:14;;;;;;;20.90;18.67;;;17.20;99.90;;;;;;5055122;28;20041;-64
2023/07/29 00:04:40;;;;;;;23.48;19.10;;;17.20;99.90;;;;;;5053837;28;20187;-64
2023/07/29 00:07:06;;;;;;;20.83;18.83;;;17.40;99.90;;;;;;5071687;28;20121;-65
2023/07/29 00:09:31;;;;;;;21.02;18.67;;;17.20;99.90;;;;;;5058462;28;20039;-64
2023/07/29 00:11:57;;;;;;;21.67;19.13;;;17.40;99.90;;;;;;5052908;28;20153;-64
2023/07/29 00:14:22;;;;;;;21.33;19.02;;;17.20;99.90;;;;;;5054601;28;20044;-64
2023/07/29 00:16:48;;;;;;;20.45;18.30;;;17.40;99.90;;;;;;5054120;28;20586;-64
2023/07/29 00:19:14;;;;;;;22.90;18.90;;;17.20;99.90;;;;;;5053380;28;20051;-64
2023/07/29 00:21:41;;;;;;;22.77;18.75;;;17.40;99.90;;;;;;5053127;28;20117;-64
2023/07/29 00:24:06;;;;;;;21.35;18.90;;;17.50;99.90;;;;;;5053083;28;20583;-65
2023/07/29 00:26:32;;;;;;;19.52;17.38;;;17.50;99.90;;;;;;5053669;28;20045;-64
2023/07/29 00:28:58;;;;;;;21.02;17.20;;;17.40;99.90;;;;;;5052516;28;20061;-64
2023/07/29 00:31:24;;;;;;;19.92;17.95;;;17.30;99.90;;;;;;5055942;28;20040;-64
2023/07/29 00:33:49;;;;;;;20.58;17.67;;;17.60;99.90;;;;;;5039362;28;20044;-64
2023/07/29 00:36:15;;;;;;;20.00;16.42;;;17.40;99.90;;;;;;5069874;28;20044;-65
2023/07/29 00:38:41;;;;;;;18.55;16.40;;;17.70;99.90;;;;;;5041094;28;20121;-64
2023/07/29 00:41:07;;;;;;;18.08;15.80;;;17.40;99.90;;;;;;5040771;28;20409;-64
2023/07/29 00:43:33;;;;;;;17.80;16.00;;;17.60;99.90;;;;;;5055966;28;20464;-64
2023/07/29 00:46:00;;;;;;;21.95;15.18;;;17.70;99.90;;;;;;5056477;28;20129;-65
2023/07/29 00:48:26;;;;;;;15.75;14.10;;;17.40;99.90;;;;;;5040480;28;20326;-64
2023/07/29 00:50:52;;;;;;;17.50;14.43;;;17.40;99.90;;;;;;5040105;28;20048;-64
2023/07/29 00:53:18;;;;;;;17.23;15.25;;;17.40;99.90;;;;;;5056711;28;20056;-64
2023/07/29 00:55:44;;;;;;;19.13;14.95;;;17.50;99.90;;;;;;5072347;28;21365;-65
2023/07/29 00:58:10;;;;;;;17.52;14.45;;;17.50;99.90;;;;;;5057842;28;20048;-65
2023/07/29 01:00:37;;;;;;;16.17;13.68;;;17.50;99.90;;;;;;5057217;28;20048;-66
2023/07/29 01:03:02;;;;;;;16.08;14.48;;;17.50;99.90;;;;;;5057429;28;20036;-65
2023/07/29 01:06:01;;;;;;;15.15;13.27;;;17.40;99.90;;;;;;5056078;28;20110;-66
2023/07/29 01:09:09;;;;;;;14.85;13.10;;;17.80;99.90;;;;;;5055174;28;20048;-65
2023/07/29 01:11:40;;;;;;;15.07;12.23;;;17.70;99.90;;;;;;5043873;28;20534;-65
2023/07/29 01:14:41;;;;;;;17.95;14.13;;;17.80;99.90;;;;;;5055232;28;20127;-64
2023/07/29 01:17:11;;;;;;;13.57;12.13;;;17.80;99.90;;;;;;5056368;28;20114;-64
2023/07/29 01:19:49;;;;;;;16.95;12.02;;;17.60;99.90;;;;;;5055021;28;20143;-64
2023/07/29 01:22:16;;;;;;;13.25;11.68;;;17.80;99.90;;;;;;5057277;28;20042;-64
2023/07/29 01:24:42;;;;;;;13.13;11.68;;;17.90;99.90;;;;;;5055059;28;20334;-65
2023/07/29 01:27:07;;;;;;;13.70;11.27;;;17.70;99.90;;;;;;5057446;28;20621;-64
2023/07/29 01:29:33;;;;;;;13.93;12.07;;;17.80;99.90;;;;;;5058744;28;20044;-65
2023/07/29 01:32:07;;;;;;;14.30;11.35;;;17.70;99.90;;;;;;5055460;28;20079;-64
2023/07/29 01:34:56;;;;;;;12.70;10.65;;;17.90;99.90;;;;;;5075766;28;20066;-63
2023/07/29 01:37:27;;;;;;;13.55;12.13;;;18.10;99.90;;;;;;5069270;28;20331;-65
2023/07/29 01:39:58;;;;;;;12.77;11.48;;;17.80;99.90;;;;;;5056443;28;20043;-64
2023/07/29 01:42:25;;;;;;;15.10;11.40;;;17.90;99.90;;;;;;5039965;28;20120;-64
2023/07/29 01:44:51;;;;;;;12.73;11.43;;;17.80;99.90;;;;;;5051466;28;20501;-64
2023/07/29 01:47:17;;;;;;;13.77;11.50;;;18.00;99.90;;;;;;5053969;28;20036;-64
2023/07/29 01:49:43;;;;;;;12.98;11.50;;;17.70;99.90;;;;;;5055700;28;20380;-64
2023/07/29 01:52:08;;;;;;;13.52;11.23;;;17.80;99.90;;;;;;5054546;28;20041;-64
2023/07/29 01:54:34;;;;;;;12.23;11.00;;;17.60;99.90;;;;;;5056227;28;20067;-64
2023/07/29 01:57:00;;;;;;;14.48;11.60;;;17.60;99.90;;;;;;5055363;28;20378;-64
2023/07/29 01:59:25;;;;;;;13.65;11.18;;;17.90;99.90;;;;;;5055731;28;20262;-64
2023/07/29 02:01:51;;;;;;;13.68;11.35;;;17.40;99.90;;;;;;5055253;28;20662;-65
2023/07/29 02:04:17;;;;;;;12.48;11.15;;;17.40;99.90;;;;;;5056413;28;20040;-65
2023/07/29 02:06:42;;;;;;;13.02;11.63;;;17.30;99.90;;;;;;5042915;28;20358;-65
2023/07/29 02:09:08;;;;;;;13.57;10.95;;;17.60;99.90;;;;;;5073328;28;20036;-65
2023/07/29 02:11:33;;;;;;;14.32;11.45;;;17.50;99.90;;;;;;5055762;28;20104;-65
2023/07/29 02:13:59;;;;;;;12.98;11.57;;;17.50;99.90;;;;;;5055984;28;20040;-65
2023/07/29 02:16:25;;;;;;;14.02;12.02;;;17.20;99.90;;;;;;5055447;28;20384;-63
2023/07/29 02:18:51;;;;;;;15.32;12.63;;;17.10;99.90;;;;;;5038896;28;20135;-64
2023/07/29 02:21:16;;;;;;;14.35;12.38;;;17.20;99.90;;;;;;5039004;28;20044;-64
2023/07/29 02:23:42;;;;;;;14.55;12.75;;;17.30;99.90;;;;;;5057771;28;20900;-64
2023/07/29 02:26:08;;;;;;;15.48;12.95;;;17.20;99.90;;;;;;5055661;28;20176;-64
2023/07/29 02:28:34;;;;;;;15.93;12.32;;;17.00;99.90;;;;;;5056599;28;20422;-63
2023/07/29 02:31:29;;;;;;;15.55;12.98;;;17.20;99.90;;;;;;5055931;28;20482;-63
2023/07/29 02:33:55;;;;;;;15.32;13.35;;;17.00;99.90;;;;;;5021139;28;20044;-64
2023/07/29 02:36:21;;;;;;;19.15;13.85;;;17.10;99.90;;;;;;5058304;28;20058;-63
2023/07/29 02:38:46;;;;;;;17.65;13.55;;;17.20;99.90;;;;;;5055717;28;20051;-64
2023/07/29 02:41:12;;;;;;;15.82;13.02;;;16.90;99.90;;;;;;5056486;28;20174;-64
2023/07/29 02:43:39;;;;;;;15.02;13.43;;;16.70;99.90;;;;;;5056700;28;20047;-64
2023/07/29 02:46:05;;;;;;;18.27;13.68;;;16.90;99.90;;;;;;5058209;28;20263;-64
2023/07/29 02:48:31;;;;;;;17.75;13.75;;;16.90;99.90;;;;;;5055188;28;20037;-64
2023/07/29 02:50:56;;;;;;;18.67;13.95;;;16.70;99.90;;;;;;5053753;28;20676;-66
2023/07/29 02:53:23;;;;;;;18.05;14.30;;;16.60;99.90;;;;;;5075309;28;20035;-64
2023/07/29 02:55:49;;;;;;;16.10;13.30;;;16.60;99.90;;;;;;5056814;28;20363;-65
2023/07/29 02:58:15;;;;;;;17.10;14.07;;;16.90;99.90;;;;;;5056194;28;20709;-63
2023/07/29 03:00:41;;;;;;;16.02;13.65;;;16.50;99.90;;;;;;5037149;28;20474;-64
2023/07/29 03:03:08;;;;;;;18.67;14.13;;;16.90;99.90;;;;;;5071998;28;20667;-64
2023/07/29 03:05:34;;;;;;;17.98;14.73;;;16.80;99.90;;;;;;5054669;28;20123;-64
2023/07/29 03:08:00;;;;;;;23.02;15.13;;;16.40;99.90;;;;;;5038908;28;20074;-63
2023/07/29 03:10:25;;;;;;;17.42;13.52;;;16.40;99.90;;;;;;5075851;28;20062;-64
2023/07/29 03:12:53;;;;;;;19.65;14.85;;;16.50;99.90;;;;;;5054052;28;20139;-64
2023/07/29 03:15:24;;;;;;;18.45;14.25;;;16.70;99.90;;;;;;5055056;28;20048;-64
2023/07/29 03:17:49;;;;;;;22.70;16.45;;;16.30;99.90;;;;;;5056045;28;20048;-64
2023/07/29 03:20:15;;;;;;;21.27;15.43;;;16.40;99.90;;;;;;5040645;28;20071;-65
2023/07/29 03:22:41;;;;;;;17.63;14.43;;;16.60;99.90;;;;;;5054883;28;20043;-65
2023/07/29 03:25:07;;;;;;;18.10;14.75;;;16.60;99.90;;;;;;5055037;28;20537;-65
2023/07/29 03:27:33;;;;;;;21.75;15.85;;;16.20;99.90;;;;;;5038013;28;20557;-65
2023/07/29 03:29:59;;;;;;;21.80;16.70;;;16.30;99.90;;;;;;5054761;28;20048;-65
2023/07/29 03:32:24;;;;;;;20.13;15.23;;;16.50;99.90;;;;;;5033868;28;20097;-65
2023/07/29 03:34:50;;;;;;;23.02;16.85;;;16.50;99.90;;;;;;5055146;28;20036;-65
2023/07/29 03:37:16;;;;;;;19.05;14.73;;;16.50;99.90;;;;;;5057853;28;20036;-64
2023/07/29 03:39:42;;;;;;;19.08;15.85;;;16.30;99.90;;;;;;5055416;28;20128;-65
2023/07/29 03:42:08;;;;;;;23.98;17.60;;;16.20;99.90;;;;;;5053933;28;20292;-64
2023/07/29 03:44:35;;;;;;;23.30;16.65;;;16.50;99.90;;;;;;5053497;28;20105;-65
2023/07/29 03:47:02;;;;;;;20.88;15.98;;;16.00;99.90;;;;;;5055299;28;20431;-65
2023/07/29 03:49:28;;;;;;;24.20;16.58;;;16.10;99.90;;;;;;5056562;28;20129;-65
2023/07/29 03:51:54;;;;;;;23.33;16.38;;;16.20;99.90;;;;;;5056010;28;20276;-65
2023/07/29 03:54:20;;;;;;;21.05;16.15;;;16.40;99.90;;;;;;5058939;28;20042;-63
2023/07/29 03:56:45;;;;;;;20.98;14.77;;;16.40;99.90;;;;;;5057668;28;20277;-65
2023/07/29 03:59:11;;;;;;;21.92;14.90;;;16.40;99.90;;;;;;5054521;28;20044;-64
2023/07/29 04:01:37;;;;;;;19.10;14.30;;;16.10;99.90;;;;;;5056243;28;20302;-65
2023/07/29 04:04:02;;;;;;;20.52;15.02;;;16.00;99.90;;;;;;5054097;28;20128;-65
2023/07/29 04:06:28;;;;;;;24.63;17.13;;;16.40;99.90;;;;;;5055146;28;20036;-65
2023/07/29 04:08:54;;;;;;;21.25;14.45;;;16.50;99.90;;;;;;5055746;28;20165;-64
2023/07/29 04:11:20;;;;;;;23.05;14.68;;;16.50;99.90;;;;;;5056508;28;20682;-64
2023/07/29 04:13:46;;;;;;;17.05;13.07;;;16.30;99.90;;;;;;5058844;28;20457;-63
2023/07/29 04:16:13;;;;;;;20.40;13.70;;;16.20;99.90;;;;;;5057529;28;20117;-65
2023/07/29 04:18:38;;;;;;;16.83;12.73;;;16.20;99.90;;;;;;5042366;28;20051;-65
2023/07/29 04:21:04;;;;;;;19.15;13.48;;;16.20;99.90;;;;;;5043809;28;20040;-65
2023/07/29 04:23:30;;;;;;;18.67;12.05;;;16.30;99.90;;;;;;5042428;28;20040;-64
2023/07/29 04:25:55;;;;;;;22.50;12.68;;;16.10;99.90;;;;;;5026107;28;20128;-65
2023/07/29 04:28:21;;;;;;;17.88;11.23;;;16.50;99.90;;;;;;5057845;28;20153;-64
2023/07/29 04:30:46;;;;;;;14.65;10.20;;;16.30;99.90;;;;;;5076345;28;20395;-65
2023/07/29 04:33:12;;;;;;;19.42;11.57;;;16.60;99.90;;;;;;5075075;28;20048;-65
2023/07/29 04:35:38;;;;;;;14.52;11.50;;;16.50;99.90;;;;;;5057705;28;20040;-65
2023/07/29 04:38:04;;;;;;;15.55;10.25;;;16.40;99.90;;;;;;5058068;28;20047;-65
2023/07/29 04:40:32;;;;;;;15.80;11.13;;;16.40;99.90;;;;;;5040627;28;20048;-65
2023/07/29 04:43:01;;;;;;;19.20;10.65;;;16.80;99.90;;;;;;5055619;28;20507;-65
2023/07/29 04:45:30;;;;;;;13.27;9.85;;;16.90;99.90;;;;;;5040777;28;20055;-65
2023/07/29 04:47:56;;;;;;;13.80;10.40;;;16.60;99.90;;;;;;5057634;28;20661;-65
2023/07/29 04:50:22;;;;;;;15.30;9.85;;;16.80;99.90;;;;;;5059062;28;20047;-63
2023/07/29 04:52:48;;;;;;;16.23;9.10;;;16.60;99.90;;;;;;5039719;28;20040;-63
2023/07/29 04:55:13;;;;;;;14.88;8.95;;;16.60;99.90;;;;;;5057145;28;20087;-64
2023/07/29 04:57:39;;;;;;;12.32;7.95;;;17.10;99.90;;;;;;5040778;28;20063;-64
2023/07/29 05:00:05;;;;;;;12.60;8.43;;;16.80;99.90;;;;;;5058147;28;20125;-65
2023/07/29 05:02:31;;;;;;;12.82;8.02;;;17.10;99.90;;;;;;5045003;28;20055;-65
2023/07/29 05:04:57;;;;;;;11.45;7.22;;;16.80;99.90;;;;;;5042007;28;20048;-64
2023/07/29 05:07:22;;;;;;;11.52;6.70;;;17.20;99.90;;;;;;5056129;28;20070;-65
2023/07/29 05:09:48;;;;;;;9.73;6.30;;;17.50;99.90;;;;;;5040785;28;20051;-65
2023/07/29 05:12:14;;;;;;;10.80;6.28;;;17.10;99.90;;;;;;5058396;28;20047;-65
2023/07/29 05:14:39;;;;;;;6.22;5.57;;;17.30;99.90;;;;;;5055768;28;20040;-64
2023/07/29 05:17:05;;;;;;;9.00;5.70;;;17.30;99.90;;;;;;5039941;28;20032;-64
2023/07/29 05:19:31;;;;;;;9.77;5.45;;;17.30;99.90;;;;;;5057313;28;20581;-64
2023/07/29 05:21:57;;;;;;;7.68;5.47;;;17.50;99.90;;;;;;5043302;28;20044;-64
2023/07/29 05:24:23;;;;;;;10.35;5.63;;;17.40;99.90;;;;;;5059386;28;20599;-63
2023/07/29 05:26:49;;;;;;;8.75;5.30;;;17.40;99.90;;;;;;5055447;28;20051;-64
2023/07/29 05:29:15;;;;;;;8.43;5.15;;;17.80;99.90;;;;;;5056190;28;20040;-64
2023/07/29 05:31:41;;;;;;;8.77;5.38;;;17.70;99.90;;;;;;5043067;28;20044;-65
2023/07/29 05:34:06;;;;;;;8.98;5.28;;;17.70;99.90;;;;;;5056354;28;20105;-65
2023/07/29 05:36:32;;;;;;;5.32;4.10;;;17.40;99.90;;;;;;5057986;28;20033;-65
2023/07/29 05:38:58;;;;;;;6.95;4.07;;;17.70;99.90;;;;;;5055168;28;20036;-64
2023/07/29 05:41:25;;;;;;;6.55;3.97;;;17.50;99.90;;;;;;5056790;28;20234;-64
2023/07/29 05:43:51;;;;;;;6.07;3.35;;;17.70;99.90;;;;;;5056361;28;20234;-64
2023/07/29 05:46:17;;;;;;;5.00;3.08;;;17.80;99.90;;;;;;5057130;28;20040;-64
2023/07/29 05:48:43;;;;;;;7.38;3.38;;;17.50;99.90;;;;;;5041353;28;20048;-64
2023/07/29 05:51:08;;;;;;;6.38;3.28;;;17.80;99.90;;;;;;5055518;28;20044;-64
2023/07/29 05:53:34;;;;;;;5.57;3.13;;;17.70;99.90;;;;;;5058066;28;20039;-65
2023/07/29 05:56:00;;;;;;;6.10;2.72;;;17.80;99.90;;;;;;5061671;28;20033;-64
2023/07/29 05:58:25;;;;;;;7.57;3.10;;;17.80;99.90;;;;;;5039163;28;20059;-65
2023/07/29 06:00:51;;;;;;;5.38;3.05;;;17.90;99.90;;;;;;5058263;28;20047;-64
2023/07/29 06:03:18;;;;;;;5.85;2.40;;;17.80;99.90;;;;;;5056535;28;20040;-64
2023/07/29 06:05:43;;;;;;;5.63;3.13;;;18.00;99.90;;;;;;5039631;28;20076;-64
2023/07/29 06:08:09;;;;;;;7.78;3.00;;;17.80;99.90;;;;;;5056749;28;20120;-64
2023/07/29 06:10:35;;;;;;;5.18;2.20;;;17.80;99.90;;;;;;5055922;28;20241;-64
2023/07/29 06:13:01;;;;;;;6.03;2.10;;;18.10;99.90;;;;;;5040958;28;20474;-64
2023/07/29 06:15:26;;;;;;;4.95;2.00;;;18.00;99.90;;;;;;5059103;28;20043;-64
2023/07/29 06:17:52;;;;;;;5.18;2.20;;;18.10;99.90;;;;;;5042270;28;20032;-65
2023/07/29 06:20:18;;;;;;;5.40;2.00;;;18.20;99.90;;;;;;5055430;28;20547;-64
2023/07/29 06:22:44;;;;;;;4.72;2.13;;;18.20;99.90;;;;;;5039254;28;20048;-64
2023/07/29 06:25:10;;;;;;;5.20;1.92;;;18.20;99.90;;;;;;5042997;28;20071;-65
2023/07/29 06:27:35;;;;;;;5.20;2.15;;;18.10;99.90;;;;;;5039095;28;20122;-65
2023/07/29 06:30:01;;;;;;;4.25;1.77;;;18.30;99.90;;;;;;5057257;28;20117;-65
2023/07/29 06:32:27;;;;;;;6.75;2.33;;;18.20;99.90;;;;;;5053961;28;20063;-65
2023/07/29 06:34:54;;;;;;;6.43;2.00;;;18.30;99.90;;;;;;5055519;28;20267;-65
2023/07/29 06:37:20;;;;;;;2.85;1.75;;;18.40;99.90;;;;;;5054273;28;20827;-66
2023/07/29 06:39:46;;;;;;;5.20;1.63;;;18.50;99.90;;;;;;5037897;28;20028;-65
2023/07/29 06:42:11;;;;;;;6.72;1.88;;;18.50;99.90;;;;;;5054909;28;20105;-65
2023/07/29 06:44:37;;;;;;;2.78;1.38;;;18.50;99.90;;;;;;5056447;28;20039;-65
2023/07/29 06:47:03;;;;;;;6.65;1.83;;;18.70;99.90;;;;;;5058359;28;20796;-65
2023/07/29 06:49:29;;;;;;;4.40;1.40;;;18.60;99.90;;;;;;5035643;28;20151;-65
2023/07/29 06:51:54;;;;;;;5.65;1.70;;;19.10;99.90;;;;;;5051625;28;20040;-64
2023/07/29 06:54:25;;;;;;;5.78;1.52;;;19.40;99.90;;;;;;5053852;28;20185;-64
2023/07/29 06:56:50;;;;;;;3.65;1.25;;;19.40;99.90;;;;;;5073482;27;20052;-64
2023/07/29 06:59:16;;;;;;;4.60;1.67;;;19.90;99.90;;;;;;5051328;28;20099;-64
2023/07/29 07:01:42;;;;;;;4.35;1.50;;;20.20;99.90;;;;;;5051443;28;20088;-64
2023/07/29 07:04:08;;;;;;;4.05;1.90;;;20.40;99.90;;;;;;5035190;28;20624;-63
2023/07/29 07:06:34;;;;;;;3.88;1.90;;;20.30;99.90;;;;;;5055232;28;20131;-65
2023/07/29 07:08:59;;;;;;;5.43;1.95;;;20.00;99.90;;;;;;5055485;28;20036;-65
2023/07/29 07:11:25;;;;;;;3.67;1.80;;;19.90;99.90;;;;;;5051834;28;20320;-65
2023/07/29 07:13:51;;;;;;;5.82;1.70;;;19.90;99.90;;;;;;5051450;28;20469;-64
2023/07/29 07:16:16;;;;;;;6.63;1.90;;;19.80;99.90;;;;;;5052045;28;20470;-64
2023/07/29 07:18:42;;;;;;;4.13;1.35;;;19.70;99.90;;;;;;5051921;28;20434;-65
2023/07/29 07:21:08;;;;;;;7.60;2.30;;;19.80;99.90;;;;;;5050929;28;20115;-64
2023/07/29 07:23:33;;;;;;;5.03;1.83;;;19.70;99.90;;;;;;5054589;28;20473;-64
2023/07/29 07:25:59;;;;;;;4.18;1.48;;;19.80;99.90;;;;;;5039283;28;20557;-64
2023/07/29 07:28:25;;;;;;;6.45;2.13;;;19.80;99.90;;;;;;5052487;28;20122;-63
2023/07/29 07:30:51;;;;;;;7.55;2.10;;;19.90;99.90;;;;;;5054715;28;20333;-64
2023/07/29 07:33:17;;;;;;;6.35;2.22;;;19.90;99.90;;;;;;5033334;28;20055;-65
2023/07/29 07:35:42;;;;;;;7.65;2.50;;;20.00;99.90;;;;;;5053904;28;20048;-64
2023/07/29 07:38:09;;;;;;;5.40;1.65;;;20.10;99.90;;;;;;5038077;28;20124;-65
2023/07/29 07:40:36;;;;;;;5.40;2.25;;;20.10;99.90;;;;;;5056045;28;20489;-65
2023/07/29 07:43:02;;;;;;;7.57;1.80;;;19.90;99.90;;;;;;5053097;28;20090;-65
2023/07/29 07:45:27;;;;;;;3.70;1.73;;;20.00;99.90;;;;;;5052073;28;20058;-64
2023/07/29 07:47:53;;;;;;;5.03;1.98;;;20.20;99.90;;;;;;5052462;28;20048;-65
2023/07/29 07:50:19;;;;;;;8.13;1.73;;;20.20;99.90;;;;;;5037698;28;20484;-64
2023/07/29 07:52:46;;;;;;;7.15;2.03;;;20.30;99.90;;;;;;5053937;28;20048;-65
2023/07/29 07:55:12;;;;;;;6.80;1.90;;;20.60;99.90;;;;;;5071938;28;20036;-65
2023/07/29 07:57:37;;;;;;;4.35;1.90;;;20.60;99.90;;;;;;5054245;28;20416;-64
2023/07/29 08:00:04;;;;;;;5.18;2.10;;;20.30;99.90;;;;;;5053081;28;20139;-64
2023/07/29 08:02:30;;;;;;;4.78;1.73;;;20.10;99.90;;;;;;5036868;28;20372;-64
2023/07/29 08:04:56;;;;;;;7.47;2.63;;;19.90;99.90;;;;;;5069973;28;20410;-63
2023/07/29 08:07:21;;;;;;;6.55;2.33;;;19.90;99.90;;;;;;5052530;28;20048;-64
2023/07/29 08:09:47;;;;;;;7.00;2.20;;;19.80;99.90;;;;;;5069484;28;20075;-64
2023/07/29 08:12:13;;;;;;;5.93;2.00;;;19.80;99.90;;;;;;5069499;28;21112;-64
2023/07/29 08:14:38;;;;;;;6.78;2.00;;;19.80;99.90;;;;;;5052935;28;20036;-64
2023/07/29 08:17:04;;;;;;;6.28;1.90;;;19.70;99.90;;;;;;5053088;28;20031;-64
2023/07/29 08:19:30;;;;;;;6.50;1.90;;;19.90;99.90;;;;;;5069672;28;20293;-64
2023/07/29 08:21:55;;;;;;;8.10;2.60;;;20.00;99.90;;;;;;5069591;28;20592;-64
2023/07/29 08:24:21;;;;;;;6.90;2.00;;;20.10;99.90;;;;;;5069389;28;20109;-64
2023/07/29 08:26:47;;;;;;;4.90;1.70;;;20.20;99.90;;;;;;5069535;28;20255;-65
2023/07/29 08:29:12;;;;;;;6.30;1.90;;;20.20;99.90;;;;;;5068618;28;20142;-64
2023/07/29 08:31:39;;;;;;;7.90;1.98;;;20.40;99.90;;;;;;5052275;28;20694;-63
2023/07/29 08:34:05;;;;;;;5.80;1.98;;;20.30;99.90;;;;;;5052703;28;20453;-65
2023/07/29 08:36:31;;;;;;;4.55;1.98;;;20.50;99.90;;;;;;5069363;28;20043;-64
2023/07/29 08:38:57;;;;;;;6.30;2.20;;;20.70;99.90;;;;;;5068773;28;20080;-64
2023/07/29 08:41:37;;;;;;;4.20;1.65;;;20.90;99.90;;;;;;5069459;28;20135;-64
2023/07/29 08:44:30;;;;;;;5.68;2.00;;;21.10;99.90;;;;;;5053420;28;20048;-65
2023/07/29 08:46:57;;;;;;;5.78;1.52;;;21.30;99.90;;;;;;5068836;28;20574;-63
2023/07/29 08:49:23;;;;;;;5.78;1.48;;;21.80;99.90;;;;;;5070809;28;20501;-63
2023/07/29 08:51:51;;;;;;;4.05;1.35;;;21.80;99.90;;;;;;5069205;28;20055;-63
2023/07/29 08:54:17;;;;;;;3.47;1.30;;;22.20;99.90;;;;;;5068533;28;20076;-63
2023/07/29 08:56:43;;;;;;;4.75;1.75;;;22.40;99.90;;;;;;5050416;28;20620;-64
2023/07/29 08:59:10;;;;;;;4.95;1.13;;;22.30;99.90;;;;;;5053760;28;20406;-63
2023/07/29 09:01:40;;;;;;;3.38;0.95;;;22.40;99.90;;;;;;5053971;28;20384;-64
2023/07/29 09:04:05;;;;;;;5.65;1.45;;;22.30;99.90;;;;;;5053178;28;20044;-63
2023/07/29 09:06:32;;;;;;;3.70;1.13;;;22.10;99.90;;;;;;5036728;28;20052;-63
2023/07/29 09:08:58;;;;;;;6.70;1.27;;;21.90;99.90;;;;;;5073987;28;20409;-63
2023/07/29 09:11:25;;;;;;;3.55;0.85;;;21.80;99.90;;;;;;5072794;28;20078;-64
2023/07/29 09:13:52;;;;;;;4.72;1.30;;;21.80;99.90;;;;;;5055587;28;20058;-63
2023/07/29 09:16:19;;;;;;;4.20;1.08;;;21.80;99.90;;;;;;5072431;28;20055;-64
2023/07/29 09:18:51;;;;;;;4.40;1.23;;;21.50;99.90;;;;;;5072401;28;20051;-64
2023/07/29 09:21:24;;;;;;;3.15;1.08;;;21.60;99.90;;;;;;5055491;28;20521;-64
2023/07/29 09:23:51;;;;;;;3.95;1.33;;;21.80;99.90;;;;;;5074210;28;20266;-65
2023/07/29 09:26:24;;;;;;;4.32;1.30;;;22.00;99.90;;;;;;5052777;28;20105;-64
2023/07/29 09:28:54;;;;;;;3.53;1.10;;;22.30;99.90;;;;;;5073665;28;20235;-64
2023/07/29 09:31:22;;;;;;;4.10;1.23;;;22.80;99.90;;;;;;5053131;28;20044;-64
2023/07/29 09:33:47;;;;;;;7.03;1.30;;;23.10;99.90;;;;;;5072199;28;20062;-62
2023/07/29 09:36:13;;;;;;;4.03;1.00;;;22.80;99.90;;;;;;5052475;28;20059;-64
2023/07/29 09:38:39;;;;;;;4.70;1.10;;;22.90;99.90;;;;;;5052786;28;20123;-64
2023/07/29 09:41:05;;;;;;;5.65;1.00;;;23.10;99.90;;;;;;5036099;28;20441;-65
2023/07/29 09:43:34;;;;;;;4.18;0.90;;;23.20;99.90;;;;;;5036378;28;20564;-63
2023/07/29 09:46:04;;;;;;;6.05;1.05;;;22.80;99.90;;;;;;5072200;28;20059;-63
2023/07/29 09:48:34;;;;;;;5.22;0.95;;;22.70;99.90;;;;;;5072229;28;20215;-64
2023/07/29 09:51:10;;;;;;;5.10;0.90;;;22.40;99.90;;;;;;5071573;28;20056;-63
2023/07/29 09:53:43;;;;;;;3.72;0.90;;;22.40;99.90;;;;;;5071833;28;20051;-65
2023/07/29 09:56:09;;;;;;;3.72;0.80;;;22.20;99.90;;;;;;5073652;28;20044;-64
2023/07/29 09:58:37;;;;;;;2.83;0.60;;;22.50;99.90;;;;;;5072118;28;20067;-65
2023/07/29 10:01:06;;;;;;;4.60;0.70;;;22.60;99.90;;;;;;5071955;28;20074;-63
2023/07/29 10:03:33;;;;;;;3.78;0.75;;;22.50;99.90;;;;;;5071969;28;20063;-63
2023/07/29 10:06:06;;;;;;;2.53;0.60;;;22.20;99.90;;;;;;5071652;28;20497;-64
2023/07/29 10:08:35;;;;;;;3.67;0.75;;;22.10;99.90;;;;;;5072855;28;20052;-65
2023/07/29 10:11:02;;;;;;;2.50;0.80;;;21.80;99.90;;;;;;5073093;28;20626;-64
2023/07/29 10:13:28;;;;;;;3.78;0.70;;;21.90;99.90;;;;;;5071340;28;20047;-64
2023/07/29 10:15:55;;;;;;;3.42;0.70;;;22.30;99.90;;;;;;5054723;28;20043;-63
2023/07/29 10:18:23;;;;;;;4.25;0.57;;;22.70;99.90;;;;;;5071493;28;20082;-65
2023/07/29 10:20:51;;;;;;;2.03;0.45;;;22.90;99.90;;;;;;5054488;28;20051;-64
2023/07/29 10:23:18;;;;;;;3.08;0.60;;;22.90;99.90;;;;;;5088637;28;20052;-63
2023/07/29 10:25:48;;;;;;;4.80;0.63;;;23.20;99.90;;;;;;5071164;28;20044;-65
2023/07/29 10:28:15;;;;;;;3.28;0.55;;;23.60;99.90;;;;;;5071075;28;20051;-63
2023/07/29 10:30:41;;;;;;;5.90;0.63;;;24.30;99.90;;;;;;5070912;28;20448;-64
2023/07/29 10:33:07;;;;;;;2.55;0.30;;;25.00;99.90;;;;;;5053720;28;20048;-64
2023/07/29 10:35:33;;;;;;;2.05;0.47;;;24.90;91.30;;;;;;5071402;28;20731;-63
2023/07/29 10:38:00;;;;;;;1.70;0.30;;;25.20;60.60;;;;;;5071266;28;20071;-63
2023/07/29 10:40:26;;;;;;;3.00;0.50;;;25.10;42.40;;;;;;5072413;28;20040;-64
2023/07/29 10:43:02;;;;;;;2.95;0.30;;;25.20;27.70;;;;;;5053595;28;20056;-64
2023/07/29 10:45:39;;;;;;;1.58;0.30;;;24.80;31.30;;;;;;5053934;28;20066;-64
2023/07/29 10:48:11;;;;;;;2.70;0.30;;;25.10;26.50;;;;;;5064892;28;20051;-63
2023/07/29 10:50:37;;;;;;;3.83;0.35;;;25.00;13.80;;;;;;5055834;28;20120;-64
2023/07/29 10:53:03;;;;;;;1.85;0.28;;;25.30;17.20;;;;;;5054016;28;20593;-64
2023/07/29 10:55:36;;;;;;;1.63;0.25;;;25.50;7.10;;;;;;5069434;28;20043;-65
2023/07/29 10:58:07;;;;;;;1.13;0.20;;;25.70;5.10;;;;;;5055829;28;20056;-63
2023/07/29 11:00:33;;;;;;;1.58;0.30;;;25.20;2.10;;;;;;5061373;28;20135;-63
2023/07/29 11:03:01;;;;;;;1.75;0.30;;;25.10;6.40;;;;;;5071616;28;20083;-64
2023/07/29 11:05:41;;;;;;;1.33;0.30;;;25.20;13.40;;;;;;5056577;28;20677;-63
2023/07/29 11:08:20;;;;;;;1.95;0.30;;;25.40;6.00;;;;;;5053792;28;20184;-64
2023/07/29 11:11:07;;;;;;;1.75;0.28;;;25.60;4.70;;;;;;5057542;28;20295;-63
2023/07/29 11:13:35;;;;;;;1.75;0.20;;;25.90;1.00;;;;;;5034356;28;20048;-64
2023/07/29 11:16:02;;;;;;;1.98;0.25;;;26.30;1.00;;;;;;5055362;28;20110;-63
2023/07/29 11:18:30;;;;;;;2.88;0.20;;;26.40;1.00;;;;;;5052855;28;20055;-64
2023/07/29 11:20:57;;;;;;;1.77;0.30;;;26.10;1.00;;;;;;5052977;28;20458;-64
2023/07/29 11:23:43;;;;;;;2.30;0.50;;;25.70;1.00;;;;;;5051691;28;20032;-65
2023/07/29 11:26:09;;;;;;;3.97;0.30;;;24.80;1.00;;;;;;5052150;28;20382;-65
2023/07/29 11:28:39;;;;;;;1.35;0.20;;;24.40;1.00;;;;;;5059407;28;20043;-65
2023/07/29 11:31:04;;;;;;;1.35;0.30;;;24.20;9.70;;;;;;5051952;28;20040;-63
2023/07/29 11:33:30;;;;;;;1.88;0.22;;;24.10;26.10;;;;;;5053517;28;20402;-63
2023/07/29 11:35:59;;;;;;;1.45;0.20;;;24.30;22.60;;;;;;5034041;28;20284;-63
2023/07/29 11:38:26;;;;;;;1.33;0.30;;;24.00;19.80;;;;;;5034224;28;20087;-63
2023/07/29 11:41:03;;;;;;;2.28;0.20;;;23.70;19.00;;;;;;5051201;28;20080;-64
2023/07/29 11:43:28;;;;;;;3.53;0.30;;;23.50;23.20;;;;;;5069803;28;20071;-64
2023/07/29 11:45:54;;;;;;;2.10;0.40;;;23.20;38.30;;;;;;5069493;28;20256;-64
2023/07/29 11:48:28;;;;;;;3.53;0.40;;;22.90;54.30;;;;;;5070998;28;20042;-64
2023/07/29 11:50:55;;;;;;;1.50;0.30;;;22.60;77.20;;;;;;5085288;28;20039;-64
2023/07/29 11:53:21;;;;;;;1.85;0.30;;;22.40;90.70;;;;;;5050852;28;20044;-64
2023/07/29 11:55:57;;;;;;;3.35;0.40;;;22.10;99.90;;;;;;5033596;28;20036;-64
2023/07/29 11:58:27;;;;;;;4.70;0.55;;;22.10;99.90;;;;;;5052696;28;20052;-64
2023/07/29 12:00:54;;;;;;;1.65;0.30;;;22.10;99.90;;;;;;5057187;28;20805;-64
2023/07/29 12:03:20;;;;;;;1.35;0.30;;;22.10;99.90;;;;;;5050764;28;20402;-65
2023/07/29 12:05:48;;;;;;;2.17;0.20;;;22.00;99.90;;;;;;5051383;28;20721;-65
2023/07/29 12:08:14;;;;;;;1.52;0.30;;;21.80;99.90;;;;;;5051640;28;20044;-65
2023/07/29 12:10:40;;;;;;;1.90;0.30;;;21.80;99.90;;;;;;5051643;28;20508;-64
2023/07/29 12:13:08;;;;;;;2.85;0.38;;;21.90;99.90;;;;;;5017297;28;20056;-64
2023/07/29 12:15:33;;;;;;;2.38;0.30;;;22.30;99.90;;;;;;5009147;28;20463;-65
2023/07/29 12:17:59;;;;;;;1.90;0.40;;;22.70;99.90;;;;;;5012126;28;20040;-65
2023/07/29 12:20:26;;;;;;;1.75;0.40;;;23.30;99.90;;;;;;5013050;28;20043;-65
2023/07/29 12:23:05;;;;;;;3.42;0.40;;;23.90;95.30;;;;;;5013309;28;20438;-65
2023/07/29 12:25:30;;;;;;;1.90;0.32;;;24.50;63.60;;;;;;5016159;28;20044;-64
2023/07/29 12:28:01;;;;;;;1.55;0.40;;;25.10;46.90;;;;;;5011737;28;20115;-63
2023/07/29 12:30:27;;;;;;;3.28;0.50;;;25.00;24.40;;;;;;5013797;28;20543;-64
2023/07/29 12:32:53;;;;;;;2.65;0.50;;;24.70;26.30;;;;;;5014417;28;20407;-64
2023/07/29 12:35:19;;;;;;;3.38;0.40;;;23.90;34.40;;;;;;5016453;28;20052;-64
2023/07/29 12:37:44;;;;;;;2.10;0.40;;;23.20;59.90;;;;;;5019436;28;20868;-63
2023/07/29 12:40:24;;;;;;;1.58;0.40;;;22.60;70.10;;;;;;5015140;28;20316;-65
2023/07/29 12:42:53;;;;;;;3.25;0.60;;;22.10;99.90;;;;;;5014742;28;20053;-64